createdAt,value
2019-04-05T00:01:27.788Z,5.77
2019-04-05T00:03:59.506Z,5.17
2019-04-05T00:06:31.131Z,6.10
2019-04-05T00:09:04.021Z,5.30
2019-04-05T00:11:35.708Z,5.73
2019-04-05T00:14:07.397Z,5.87
2019-04-05T00:16:39.039Z,5.10
2019-04-05T00:19:10.725Z,5.40
2019-04-05T00:21:42.396Z,5.90
2019-04-05T00:24:14.149Z,5.93
2019-04-05T00:26:45.833Z,5.40
2019-04-05T00:29:18.655Z,5.20
2019-04-05T00:31:50.378Z,6.13
2019-04-05T00:34:22.089Z,6.47
2019-04-05T00:36:53.731Z,6.30
2019-04-05T00:39:25.436Z,5.97
2019-04-05T00:41:57.095Z,6.90
2019-04-05T00:44:28.799Z,7.20
2019-04-05T00:47:00.473Z,8.00
2019-04-05T00:49:33.449Z,7.53
2019-04-05T00:52:05.113Z,8.03
2019-04-05T00:54:36.798Z,8.70
2019-04-05T00:57:08.441Z,8.10
2019-04-05T00:59:40.115Z,8.90
2019-04-05T01:02:11.798Z,7.97
2019-04-05T01:04:43.525Z,8.57
2019-04-05T01:07:15.153Z,9.23
2019-04-05T01:09:46.907Z,8.03
2019-04-05T01:12:20.976Z,7.37
2019-04-05T01:14:53.514Z,8.77
2019-04-05T01:17:25.533Z,8.50
2019-04-05T01:20:02.402Z,8.57
2019-04-05T01:22:36.225Z,8.63
2019-04-05T01:25:08.187Z,8.57
2019-04-05T01:27:42.252Z,9.03
2019-04-05T01:30:16.735Z,9.27
2019-04-05T01:32:49.317Z,9.93
2019-04-05T01:35:20.973Z,9.30
2019-04-05T01:37:52.973Z,9.03
2019-04-05T01:40:28.903Z,9.13
2019-04-05T01:43:01.171Z,8.33
2019-04-05T01:45:33.252Z,8.47
2019-04-05T01:48:06.310Z,8.60
2019-04-05T01:50:37.989Z,8.63
2019-04-05T01:53:09.841Z,9.07
2019-04-05T01:55:41.724Z,8.53
2019-04-05T01:58:13.374Z,8.77
2019-04-05T02:00:45.072Z,8.57
2019-04-05T02:03:16.734Z,7.20
2019-04-05T02:05:48.617Z,6.80
2019-04-05T02:08:20.449Z,7.03
2019-04-05T02:10:52.171Z,6.97
2019-04-05T02:13:23.844Z,7.23
2019-04-05T02:16:05.619Z,7.67
2019-04-05T02:18:29.118Z,8.40
2019-04-05T02:21:00.787Z,8.47
2019-04-05T02:23:35.197Z,8.63
2019-04-05T02:26:06.982Z,8.87
2019-04-05T02:28:38.998Z,9.17
2019-04-05T02:31:10.796Z,9.20
2019-04-05T02:33:42.610Z,8.77
2019-04-05T02:36:14.304Z,9.13
2019-04-05T02:38:45.982Z,9.13
2019-04-05T02:41:19.643Z,9.40
2019-04-05T02:43:54.454Z,9.37
2019-04-05T02:46:29.254Z,9.90
2019-04-05T02:49:04.581Z,10.00
2019-04-05T02:51:39.949Z,9.37
2019-04-05T02:54:12.328Z,9.67
2019-04-05T02:56:45.070Z,10.33
2019-04-05T02:59:18.341Z,10.93
2019-04-05T03:01:50.665Z,10.50
2019-04-05T03:04:22.503Z,10.43
2019-04-05T03:06:54.133Z,11.10
2019-04-05T03:09:26.186Z,10.07
2019-04-05T03:11:59.937Z,10.53
2019-04-05T03:14:32.957Z,10.20
2019-04-05T03:17:05.255Z,11.33
2019-04-05T03:19:39.346Z,10.57
2019-04-05T03:22:14.867Z,10.67
2019-04-05T03:24:48.875Z,9.57
2019-04-05T03:27:27.288Z,9.53
2019-04-05T03:29:59.785Z,10.67
2019-04-05T03:32:31.619Z,10.30
2019-04-05T03:35:04.075Z,10.60
2019-04-05T03:37:36.401Z,10.90
2019-04-05T03:40:08.896Z,11.10
2019-04-05T03:42:41.067Z,11.60
2019-04-05T03:45:13.059Z,11.10
2019-04-05T03:47:45.002Z,10.23
2019-04-05T03:50:16.805Z,10.80
2019-04-05T03:52:48.473Z,10.40
2019-04-05T03:55:20.121Z,11.37
2019-04-05T03:57:52.118Z,10.03
2019-04-05T04:00:23.960Z,11.13
2019-04-05T04:02:57.147Z,11.23
2019-04-05T04:05:28.799Z,11.00
2019-04-05T04:08:01.080Z,10.87
2019-04-05T04:10:34.235Z,10.47
2019-04-05T04:13:06.213Z,9.90
2019-04-05T04:15:38.236Z,9.90
2019-04-05T04:18:10.156Z,10.70
2019-04-05T04:20:48.892Z,10.70
2019-04-05T04:23:23.824Z,10.43
2019-04-05T04:25:56.665Z,11.47
2019-04-05T04:28:29.082Z,10.97
2019-04-05T04:31:02.239Z,10.43
2019-04-05T04:33:36.071Z,10.57
2019-04-05T04:36:08.114Z,11.60
2019-04-05T04:38:40.392Z,11.00
2019-04-05T04:41:12.091Z,10.73
2019-04-05T04:43:44.241Z,10.67
2019-04-05T04:46:16.322Z,10.13
2019-04-05T04:48:49.381Z,10.70
2019-04-05T04:51:21.942Z,10.23
2019-04-05T04:53:54.193Z,9.60
2019-04-05T04:56:26.186Z,10.23
2019-04-05T04:58:58.011Z,10.17
2019-04-05T05:01:30.103Z,9.63
2019-04-05T05:04:01.987Z,10.77
2019-04-05T05:06:33.682Z,10.23
2019-04-05T05:09:07.719Z,9.80
2019-04-05T05:11:39.719Z,10.07
2019-04-05T05:14:11.415Z,9.30
2019-04-05T05:16:44.036Z,10.57
2019-04-05T05:19:16.326Z,9.90
2019-04-05T05:21:48.162Z,10.40
2019-04-05T05:24:20.256Z,9.37
2019-04-05T05:26:52.624Z,13.03
2019-04-05T05:29:24.810Z,10.97
2019-04-05T05:31:56.723Z,10.10
2019-04-05T05:34:28.425Z,11.33
2019-04-05T05:37:00.290Z,9.57
2019-04-05T05:39:32.381Z,10.00
2019-04-05T05:42:04.185Z,10.60
2019-04-05T05:44:35.884Z,10.30
2019-04-05T05:47:07.665Z,10.07
2019-04-05T05:49:39.375Z,11.00
2019-04-05T05:52:11.705Z,11.30
2019-04-05T05:54:43.502Z,10.07
2019-04-05T05:57:15.199Z,11.67
2019-04-05T05:59:46.890Z,9.90
2019-04-05T06:02:18.737Z,10.50
2019-04-05T06:04:50.412Z,10.30
2019-04-05T06:07:22.107Z,10.00
2019-04-05T06:09:53.823Z,9.60
2019-04-05T06:12:25.493Z,9.63
2019-04-05T06:14:57.148Z,10.37
2019-04-05T06:17:28.906Z,11.27
2019-04-05T06:20:01.046Z,14.33
2019-04-05T06:22:32.903Z,18.67
2019-04-05T06:25:06.850Z,12.20
2019-04-05T06:27:38.647Z,10.77
2019-04-05T06:30:10.754Z,10.20
2019-04-05T06:32:42.550Z,8.77
2019-04-05T06:35:14.682Z,9.17
2019-04-05T06:37:46.419Z,10.67
2019-04-05T06:40:18.048Z,9.27
2019-04-05T06:42:49.740Z,10.50
2019-04-05T06:45:21.444Z,9.87
2019-04-05T06:47:53.112Z,10.23
2019-04-05T06:50:24.921Z,9.13
2019-04-05T06:52:56.709Z,9.63
2019-04-05T06:55:28.410Z,10.40
2019-04-05T06:58:00.196Z,9.93
2019-04-05T07:00:32.360Z,9.93
2019-04-05T07:03:04.184Z,9.13
2019-04-05T07:05:35.881Z,8.67
2019-04-05T07:08:07.672Z,9.20
2019-04-05T07:10:39.494Z,9.07
2019-04-05T07:13:11.253Z,9.97
2019-04-05T07:15:42.922Z,8.40
2019-04-05T07:18:14.714Z,8.07
2019-04-05T07:20:47.430Z,8.10
2019-04-05T07:23:19.337Z,7.63
2019-04-05T07:25:51.011Z,7.87
2019-04-05T07:28:24.994Z,7.87
2019-04-05T07:30:56.114Z,8.27
2019-04-05T07:33:27.869Z,7.73
2019-04-05T07:35:59.533Z,7.57
2019-04-05T07:38:31.216Z,7.20
2019-04-05T07:41:02.955Z,8.30
2019-04-05T07:43:35.015Z,7.57
2019-04-05T07:46:08.003Z,8.00
2019-04-05T07:48:44.996Z,7.73
2019-04-05T07:51:13.185Z,7.90
2019-04-05T07:53:46.356Z,8.30
2019-04-05T07:56:18.117Z,9.10
2019-04-05T07:58:49.835Z,9.30
2019-04-05T08:01:22.859Z,8.20
2019-04-05T08:03:54.728Z,8.87
2019-04-05T08:06:26.413Z,8.67
2019-04-05T08:09:12.792Z,8.33
2019-04-05T08:11:46.918Z,8.43
2019-04-05T08:14:20.775Z,8.97
2019-04-05T08:16:52.499Z,9.17
2019-04-05T08:19:24.169Z,9.63
2019-04-05T08:21:57.378Z,9.73
2019-04-05T08:24:29.240Z,15.73
2019-04-05T08:27:00.988Z,11.60
2019-04-05T08:29:33.378Z,10.77
2019-04-05T08:32:14.546Z,10.40
2019-04-05T08:34:38.627Z,9.93
2019-04-05T08:37:10.776Z,10.03
2019-04-05T08:39:42.605Z,11.17
2019-04-05T08:42:14.497Z,9.70
2019-04-05T08:44:46.224Z,9.57
2019-04-05T08:47:17.972Z,9.43
2019-04-05T08:49:49.671Z,9.03
2019-04-05T08:52:21.546Z,9.37
2019-04-05T08:54:53.268Z,9.27
2019-04-05T08:57:25.039Z,9.37
2019-04-05T08:59:56.802Z,9.00
2019-04-05T09:02:28.627Z,9.07
2019-04-05T09:05:00.459Z,9.53
2019-04-05T09:07:32.569Z,10.07
2019-04-05T09:10:04.574Z,9.67
2019-04-05T09:12:36.354Z,9.23
2019-04-05T09:15:08.080Z,9.87
2019-04-05T09:17:39.827Z,9.30
2019-04-05T09:20:12.148Z,10.53
2019-04-05T09:22:44.000Z,10.27
2019-04-05T09:25:15.766Z,8.93
2019-04-05T09:27:47.496Z,9.77
2019-04-05T09:30:19.330Z,8.10
2019-04-05T09:32:52.247Z,9.00
2019-04-05T09:35:23.994Z,10.17
2019-04-05T09:37:55.870Z,9.97
2019-04-05T09:40:27.599Z,9.57
2019-04-05T09:42:59.387Z,9.40
2019-04-05T09:45:31.382Z,9.37
2019-04-05T09:48:03.058Z,8.70
2019-04-05T09:50:35.200Z,10.17
2019-04-05T09:53:06.912Z,9.80
2019-04-05T09:55:41.809Z,8.97
2019-04-05T09:58:13.500Z,8.87
2019-04-05T10:00:45.231Z,7.93
2019-04-05T10:03:16.949Z,7.97
2019-04-05T10:05:48.652Z,7.27
2019-04-05T10:08:20.401Z,7.90
2019-04-05T10:10:52.283Z,8.07
2019-04-05T10:13:23.974Z,7.27
2019-04-05T10:15:55.773Z,6.87
2019-04-05T10:18:28.693Z,7.03
2019-04-05T10:21:00.359Z,9.80
2019-04-05T10:23:32.057Z,6.63
2019-04-05T10:26:04.585Z,6.00
2019-04-05T10:28:36.255Z,6.10
2019-04-05T10:31:07.904Z,6.67
2019-04-05T10:33:39.577Z,6.40
2019-04-05T10:36:12.670Z,6.73
2019-04-05T10:38:44.457Z,5.53
2019-04-05T10:41:16.288Z,5.77
2019-04-05T10:43:48.115Z,5.67
2019-04-05T10:46:19.797Z,5.80
2019-04-05T10:48:51.620Z,5.73
2019-04-05T10:51:23.364Z,5.47
2019-04-05T10:53:55.135Z,5.33
2019-04-05T10:56:27.184Z,5.33
2019-04-05T10:58:59.046Z,4.73
2019-04-05T11:01:30.826Z,5.03
2019-04-05T11:04:03.537Z,5.10
2019-04-05T11:06:35.443Z,5.23
2019-04-05T11:09:09.596Z,5.50
2019-04-05T11:11:42.822Z,5.20
2019-04-05T11:14:15.664Z,5.07
2019-04-05T11:16:57.747Z,5.30
2019-04-05T11:19:20.833Z,5.83
2019-04-05T11:21:52.588Z,6.17
2019-04-05T11:24:43.294Z,6.47
2019-04-05T11:27:16.574Z,6.57
2019-04-05T11:29:48.377Z,7.63
2019-04-05T11:32:20.294Z,7.07
2019-04-05T11:34:52.139Z,7.53
2019-04-05T11:37:24.463Z,7.53
2019-04-05T11:39:57.161Z,6.83
2019-04-05T11:42:32.990Z,7.43
2019-04-05T11:45:05.573Z,8.03
2019-04-05T11:47:39.028Z,7.83
2019-04-05T11:50:11.898Z,8.00
2019-04-05T11:52:43.588Z,8.37
2019-04-05T11:55:18.219Z,8.30
2019-04-05T11:57:48.716Z,7.93
2019-04-05T12:00:27.770Z,8.10
2019-04-05T12:03:03.328Z,8.40
2019-04-05T12:05:36.060Z,8.03
2019-04-05T12:08:07.765Z,7.83
2019-04-05T12:10:39.526Z,8.67
2019-04-05T12:13:11.304Z,9.00
2019-04-05T12:15:43.023Z,8.87
2019-04-05T12:18:19.203Z,8.77
2019-04-05T12:20:57.663Z,9.17
2019-04-05T12:23:21.571Z,8.97
2019-04-05T12:25:54.671Z,8.77
2019-04-05T12:28:26.600Z,8.47
2019-04-05T12:30:58.267Z,8.00
2019-04-05T12:33:30.057Z,8.97
2019-04-05T12:36:01.783Z,8.20
2019-04-05T12:38:34.338Z,7.67
2019-04-05T12:41:10.651Z,7.53
2019-04-05T12:43:43.679Z,7.23
2019-04-05T12:46:16.101Z,7.23
2019-04-05T12:48:47.626Z,7.27
2019-04-05T12:51:19.419Z,7.73
2019-04-05T12:53:51.250Z,7.30
2019-04-05T12:56:24.361Z,7.87
2019-04-05T12:58:56.766Z,7.27
2019-04-05T13:01:28.588Z,8.57
2019-04-05T13:04:00.341Z,7.80
2019-04-05T13:06:32.116Z,8.50
2019-04-05T13:09:05.848Z,9.27
2019-04-05T13:11:37.804Z,7.87
2019-04-05T13:14:09.530Z,7.30
2019-04-05T13:16:41.286Z,8.20
2019-04-05T13:19:13.196Z,7.90
2019-04-05T13:21:45.087Z,8.50
2019-04-05T13:24:16.931Z,8.07
2019-04-05T13:26:49.069Z,8.43
2019-04-05T13:29:20.877Z,8.47
2019-04-05T13:31:52.640Z,8.53
2019-04-05T13:34:25.877Z,8.50
2019-04-05T13:37:01.266Z,9.03
2019-04-05T13:39:32.683Z,8.33
2019-04-05T13:42:04.886Z,8.90
2019-04-05T13:44:36.637Z,8.20
2019-04-05T13:47:09.135Z,9.87
2019-04-05T13:49:41.463Z,9.50
2019-04-05T13:52:25.083Z,8.40
2019-04-05T13:54:56.811Z,9.53
2019-04-05T13:57:31.156Z,9.67
2019-04-05T14:00:03.024Z,9.13
2019-04-05T14:02:34.725Z,8.67
2019-04-05T14:05:07.382Z,8.57
2019-04-05T14:07:39.283Z,8.73
2019-04-05T14:10:12.580Z,8.63
2019-04-05T14:12:44.420Z,8.77
2019-04-05T14:15:18.012Z,9.40
2019-04-05T14:17:49.930Z,9.37
2019-04-05T14:20:24.301Z,9.13
2019-04-05T14:22:55.366Z,8.73
2019-04-05T14:25:29.974Z,8.37
2019-04-05T14:28:02.507Z,8.57
2019-04-05T14:30:35.455Z,8.73
2019-04-05T14:33:07.207Z,8.97
2019-04-05T14:35:38.972Z,8.97
2019-04-05T14:38:11.840Z,8.60
2019-04-05T14:40:43.906Z,8.17
2019-04-05T14:43:15.781Z,9.73
2019-04-05T14:45:47.490Z,8.43
2019-04-05T14:48:19.336Z,8.20
2019-04-05T14:50:52.212Z,7.70
2019-04-05T14:53:24.044Z,8.13
2019-04-05T14:55:59.202Z,8.43
2019-04-05T14:58:31.143Z,8.10
2019-04-05T15:01:03.126Z,9.13
2019-04-05T15:03:35.091Z,9.83
2019-04-05T15:06:06.945Z,8.90
2019-04-05T15:08:39.125Z,8.57
2019-04-05T15:11:11.311Z,8.90
2019-04-05T15:13:43.080Z,8.90
2019-04-05T15:16:14.788Z,9.67
2019-04-05T15:18:46.582Z,11.93
2019-04-05T15:21:18.310Z,10.30
2019-04-05T15:23:50.243Z,10.03
2019-04-05T15:26:22.006Z,9.40
2019-04-05T15:28:55.152Z,8.27
2019-04-05T15:31:27.087Z,8.90
2019-04-05T15:33:58.919Z,8.03
2019-04-05T15:36:31.667Z,8.27
2019-04-05T15:39:05.667Z,7.77
2019-04-05T15:41:37.532Z,7.40
2019-04-05T15:44:09.305Z,8.27
2019-04-05T15:46:41.051Z,8.47
2019-04-05T15:49:12.955Z,9.20
2019-04-05T15:51:44.759Z,7.83
2019-04-05T15:54:16.527Z,7.97
2019-04-05T15:56:48.204Z,8.03
2019-04-05T15:59:21.869Z,7.53
2019-04-05T16:01:53.431Z,7.23
2019-04-05T16:04:25.486Z,8.30
2019-04-05T16:06:57.695Z,7.10
2019-04-05T16:09:29.428Z,7.40
2019-04-05T16:12:01.254Z,7.53
2019-04-05T16:14:33.041Z,7.30
2019-04-05T16:17:05.103Z,7.33
2019-04-05T16:19:38.094Z,7.80
2019-04-05T16:22:09.779Z,7.23
2019-04-05T16:24:42.640Z,9.03
2019-04-05T16:27:14.319Z,7.70
2019-04-05T16:29:46.132Z,7.70
2019-04-05T16:32:17.819Z,7.37
2019-04-05T16:34:49.647Z,7.57
2019-04-05T16:37:21.403Z,7.87
2019-04-05T16:39:53.281Z,6.97
2019-04-05T16:42:24.973Z,7.43
2019-04-05T16:44:56.981Z,7.07
2019-04-05T16:47:28.648Z,7.17
2019-04-05T16:50:00.520Z,7.43
2019-04-05T16:52:44.259Z,7.90
2019-04-05T16:55:06.182Z,7.17
2019-04-05T16:57:57.408Z,8.37
2019-04-05T17:00:29.375Z,8.33
2019-04-05T17:03:01.392Z,7.10
2019-04-05T17:05:33.254Z,8.40
2019-04-05T17:08:05.271Z,8.57
2019-04-05T17:10:37.235Z,8.23
2019-04-05T17:13:09.150Z,7.83
2019-04-05T17:15:41.026Z,8.33
2019-04-05T17:18:13.129Z,7.97
2019-04-05T17:20:45.039Z,6.73
2019-04-05T17:23:16.996Z,6.83
2019-04-05T17:25:48.941Z,7.33
2019-04-05T17:28:20.888Z,7.77
2019-04-05T17:30:52.907Z,6.97
2019-04-05T17:33:24.753Z,8.03
2019-04-05T17:35:56.646Z,8.47
2019-04-05T17:38:28.432Z,8.97
2019-04-05T17:41:00.557Z,9.07
2019-04-05T17:43:32.488Z,8.27
2019-04-05T17:46:04.488Z,9.30
2019-04-05T17:48:36.393Z,8.30
2019-04-05T17:51:08.709Z,9.33
2019-04-05T17:53:40.729Z,9.00
2019-04-05T17:56:13.146Z,9.57
2019-04-05T17:58:45.335Z,10.17
2019-04-05T18:01:17.195Z,10.87
2019-04-05T18:03:49.125Z,11.10
2019-04-05T18:06:21.151Z,11.33
2019-04-05T18:08:56.333Z,10.43
2019-04-05T18:11:28.427Z,10.77
2019-04-05T18:14:00.431Z,11.47
2019-04-05T18:16:32.354Z,12.47
2019-04-05T18:19:04.193Z,12.63
2019-04-05T18:21:36.173Z,11.57
2019-04-05T18:24:08.149Z,11.80
2019-04-05T18:26:40.060Z,11.47
2019-04-05T18:29:11.987Z,12.40
2019-04-05T18:31:44.163Z,12.37
2019-04-05T18:34:16.268Z,14.53
2019-04-05T18:36:48.586Z,13.23
2019-04-05T18:39:20.607Z,13.33
2019-04-05T18:41:52.649Z,14.17
2019-04-05T18:44:24.753Z,14.30
2019-04-05T18:46:56.652Z,13.53
2019-04-05T18:49:28.521Z,15.37
2019-04-05T18:52:00.432Z,14.73
2019-04-05T18:54:32.321Z,14.83
2019-04-05T18:57:04.343Z,13.47
2019-04-05T18:59:36.476Z,13.60
2019-04-05T19:02:08.534Z,13.30
2019-04-05T19:04:40.593Z,13.07
2019-04-05T19:07:12.704Z,13.80
2019-04-05T19:09:44.609Z,14.03
2019-04-05T19:12:16.606Z,13.40
2019-04-05T19:14:51.614Z,14.17
2019-04-05T19:17:24.569Z,13.83
2019-04-05T19:19:56.727Z,14.40
2019-04-05T19:22:28.665Z,14.10
2019-04-05T19:25:00.799Z,13.63
2019-04-05T19:27:32.790Z,13.07
2019-04-05T19:50:38.694Z,13.60
2019-04-05T19:53:11.056Z,13.93
2019-04-05T19:55:43.537Z,13.77
2019-04-05T19:58:15.929Z,14.43
2019-04-05T20:00:47.948Z,12.50
2019-04-05T20:03:19.818Z,12.77
2019-04-05T20:05:51.737Z,12.70
2019-04-05T20:08:23.679Z,13.33
2019-04-05T20:10:55.813Z,14.30
2019-04-05T20:13:27.792Z,13.57
2019-04-05T20:15:59.904Z,12.53
2019-04-05T20:18:31.893Z,13.50
2019-04-05T20:21:03.862Z,12.40
2019-04-05T20:23:35.774Z,13.57
2019-04-05T20:26:07.670Z,12.53
2019-04-05T20:28:39.594Z,13.70
2019-04-05T20:31:11.564Z,14.17
2019-04-05T20:33:43.481Z,13.53
2019-04-05T20:36:15.375Z,13.10
2019-04-05T20:38:47.273Z,13.97
2019-04-05T20:41:19.169Z,13.13
2019-04-05T20:43:51.014Z,12.67
2019-04-05T20:46:22.939Z,12.70
2019-04-05T20:48:54.828Z,13.93
2019-04-05T20:51:26.707Z,13.80
2019-04-05T20:53:58.711Z,14.33
2019-04-05T20:56:30.799Z,13.23
2019-04-05T20:59:04.411Z,14.80
2019-04-05T21:01:36.523Z,15.40
2019-04-05T21:04:08.481Z,13.73
2019-04-05T21:06:43.417Z,14.17
2019-04-05T21:09:15.517Z,13.63
2019-04-05T21:11:47.465Z,14.20
2019-04-05T21:14:19.477Z,13.77
2019-04-05T21:16:51.489Z,14.37
2019-04-05T21:19:23.421Z,14.80
2019-04-05T21:21:56.663Z,14.60
2019-04-05T21:24:36.143Z,15.90
2019-04-05T21:27:02.403Z,15.83
2019-04-05T21:29:34.478Z,16.03
2019-04-05T21:32:06.499Z,15.90
2019-04-05T21:34:38.405Z,15.77
2019-04-05T21:37:10.596Z,15.57
2019-04-05T21:39:42.516Z,15.83
2019-04-05T21:42:15.939Z,16.10
2019-04-05T21:44:48.128Z,16.03
2019-04-05T21:47:20.191Z,16.73
2019-04-05T21:49:52.290Z,16.23
2019-04-05T21:52:24.339Z,15.80
2019-04-05T21:54:56.247Z,15.73
2019-04-05T21:57:28.150Z,15.30
2019-04-05T21:59:59.988Z,15.37
2019-04-05T22:02:32.187Z,16.47
2019-04-05T22:05:04.708Z,17.17
2019-04-05T22:07:36.890Z,17.30
2019-04-05T22:10:09.124Z,16.07
2019-04-05T22:12:41.085Z,15.80
2019-04-05T22:15:13.308Z,15.97
2019-04-05T22:17:45.387Z,17.53
2019-04-05T22:20:17.294Z,15.87
2019-04-05T22:22:49.171Z,16.50
2019-04-05T22:25:21.096Z,16.57
2019-04-05T22:27:53.199Z,17.53
2019-04-05T22:30:25.068Z,16.43
2019-04-05T22:32:57.351Z,17.23
2019-04-05T22:35:29.591Z,16.03
2019-04-05T22:38:01.639Z,16.97
2019-04-05T22:40:34.885Z,15.57
2019-04-05T22:43:06.858Z,16.17
2019-04-05T22:45:38.851Z,16.73
2019-04-05T22:48:10.693Z,15.80
2019-04-05T22:50:43.788Z,17.40
2019-04-05T22:53:15.716Z,17.50
2019-04-05T22:55:47.605Z,16.23
2019-04-05T22:58:19.501Z,16.23
2019-04-05T23:00:51.530Z,17.43
2019-04-05T23:03:23.521Z,18.27
2019-04-05T23:05:55.421Z,17.77
2019-04-05T23:08:27.340Z,17.83
2019-04-05T23:10:59.316Z,18.67
2019-04-05T23:13:31.219Z,16.90
2019-04-05T23:16:03.266Z,18.97
2019-04-05T23:18:35.183Z,18.27
2019-04-05T23:21:07.276Z,18.03
2019-04-05T23:23:39.163Z,18.00
2019-04-05T23:26:11.072Z,18.43
2019-04-05T23:28:43.006Z,18.17
2019-04-05T23:31:14.997Z,17.73
2019-04-05T23:33:46.995Z,19.73
2019-04-05T23:36:19.194Z,18.00
2019-04-05T23:38:51.168Z,17.90
2019-04-05T23:41:23.092Z,18.37
2019-04-05T23:43:54.914Z,18.70
2019-04-05T23:46:26.870Z,19.17
2019-04-05T23:48:58.721Z,17.93
2019-04-05T23:51:30.708Z,17.27
2019-04-05T23:54:02.529Z,18.00
2019-04-05T23:56:34.448Z,17.80
2019-04-05T23:59:06.369Z,18.07
